Time;durP1;ratioP1;P1;durP2;ratioP2;P2;SDS_P1;SDS_P2;PMS_P1;PMS_P2;Temp;Humidity;BMP_temperature;BMP_pressure;BME280_temperature;BME280_humidity;BME280_pressure;Samples;Min_cycle;Max_cycle;Signal;HPM_P1;HPM_P2
2023/06/28 00:00:33;;;;;;;3.57;1.20;;;20.00;72.30;;;;;;4968956;28;20266;-16
2023/06/28 00:03:00;;;;;;;2.10;1.20;;;19.90;72.50;;;;;;4983922;28;20323;-17
2023/06/28 00:05:26;;;;;;;2.50;1.30;;;19.90;72.70;;;;;;4957141;28;20339;-16
2023/06/28 00:07:51;;;;;;;1.87;1.23;;;19.90;73.00;;;;;;4963350;28;20440;-17
2023/06/28 00:10:17;;;;;;;1.90;1.13;;;19.80;73.20;;;;;;4931207;28;20117;-17
2023/06/28 00:12:43;;;;;;;2.30;1.23;;;19.80;73.50;;;;;;4943760;28;20023;-16
2023/06/28 00:15:09;;;;;;;1.95;1.20;;;19.80;73.70;;;;;;4963885;28;20173;-17
2023/06/28 00:17:35;;;;;;;2.03;1.30;;;19.80;73.90;;;;;;4958892;28;20236;-16
2023/06/28 00:20:10;;;;;;;1.77;1.20;;;19.80;74.00;;;;;;4983134;28;20045;-18
2023/06/28 00:22:39;;;;;;;1.90;1.30;;;19.70;74.30;;;;;;4958177;28;20160;-17
2023/06/28 00:25:06;;;;;;;2.40;1.40;;;19.70;74.50;;;;;;4955447;28;20042;-17
2023/06/28 00:27:32;;;;;;;2.88;1.27;;;19.70;74.90;;;;;;4972335;28;20035;-17
2023/06/28 00:29:58;;;;;;;2.00;1.30;;;19.70;75.20;;;;;;4957921;28;20046;-17
2023/06/28 00:32:25;;;;;;;2.70;1.50;;;19.60;75.50;;;;;;4962684;28;20042;-17
2023/06/28 00:34:51;;;;;;;2.00;1.17;;;19.60;75.80;;;;;;4967100;28;20061;-17
2023/06/28 00:37:17;;;;;;;2.97;1.30;;;19.60;76.10;;;;;;4948343;28;20082;-18
2023/06/28 00:39:43;;;;;;;2.30;1.30;;;19.60;76.30;;;;;;4950922;28;20034;-18
2023/06/28 00:42:09;;;;;;;3.47;1.30;;;19.50;76.50;;;;;;4932487;28;20038;-17
2023/06/28 00:44:35;;;;;;;2.15;1.23;;;19.50;76.90;;;;;;4955801;28;20023;-17
2023/06/28 00:47:02;;;;;;;3.53;1.23;;;19.50;77.20;;;;;;4982869;28;20042;-18
2023/06/28 00:49:31;;;;;;;1.57;1.20;;;19.50;77.50;;;;;;4966732;28;20338;-17
2023/06/28 00:51:58;;;;;;;2.92;1.20;;;19.50;77.80;;;;;;4967806;28;20037;-17
2023/06/28 00:54:23;;;;;;;2.83;1.30;;;19.50;77.80;;;;;;4954701;28;20615;-17
2023/06/28 00:56:51;;;;;;;2.20;1.25;;;19.50;78.00;;;;;;4943170;28;20034;-17
2023/06/28 00:59:17;;;;;;;2.40;1.23;;;19.40;78.10;;;;;;4952421;28;20038;-18
2023/06/28 01:01:43;;;;;;;1.80;1.27;;;19.40;78.30;;;;;;4958560;28;20136;-18
2023/06/28 01:04:09;;;;;;;1.48;1.25;;;19.40;78.40;;;;;;4968619;28;20500;-18
2023/06/28 01:06:37;;;;;;;1.67;1.10;;;19.40;78.60;;;;;;4973100;28;20042;-18
2023/06/28 01:09:04;;;;;;;2.27;1.27;;;19.40;78.80;;;;;;4954424;28;20038;-18
2023/06/28 01:11:31;;;;;;;2.88;1.30;;;19.40;78.80;;;;;;4936742;28;20283;-18
2023/06/28 01:13:58;;;;;;;3.13;1.20;;;19.40;79.00;;;;;;4969544;28;20053;-18
2023/06/28 01:16:24;;;;;;;2.13;1.20;;;19.30;79.10;;;;;;4952368;28;20306;-18
2023/06/28 01:18:50;;;;;;;2.45;1.20;;;19.30;79.20;;;;;;4968785;28;20065;-18
2023/06/28 01:21:17;;;;;;;2.43;1.20;;;19.30;79.30;;;;;;4965758;28;20030;-18
2023/06/28 01:23:45;;;;;;;1.88;1.25;;;19.30;79.60;;;;;;4969673;28;20543;-18
2023/06/28 01:26:12;;;;;;;2.33;1.40;;;19.30;79.80;;;;;;4939970;28;20060;-18
2023/06/28 01:28:38;;;;;;;2.25;1.40;;;19.30;80.00;;;;;;4942094;28;20284;-18
2023/06/28 01:31:05;;;;;;;2.10;1.20;;;19.30;80.10;;;;;;4979632;28;20031;-18
2023/06/28 01:33:30;;;;;;;2.10;1.30;;;19.30;80.30;;;;;;4957397;28;20037;-18
2023/06/28 01:35:59;;;;;;;2.55;1.27;;;19.30;80.30;;;;;;4968666;28;20260;-18
2023/06/28 01:38:27;;;;;;;2.40;1.30;;;19.30;80.60;;;;;;4968110;28;20062;-18
2023/06/28 01:40:53;;;;;;;2.90;1.50;;;19.30;80.70;;;;;;4958809;28;20216;-18
2023/06/28 01:43:20;;;;;;;2.10;1.30;;;19.30;80.80;;;;;;4947453;28;20489;-18
2023/06/28 01:45:47;;;;;;;2.47;1.30;;;19.30;80.90;;;;;;4962324;28;20038;-18
2023/06/28 01:48:13;;;;;;;3.00;1.30;;;19.30;81.10;;;;;;4965331;28;20026;-18
2023/06/28 01:50:39;;;;;;;2.30;1.20;;;19.30;81.10;;;;;;4967665;28;20041;-18
2023/06/28 01:53:07;;;;;;;3.63;1.63;;;19.30;81.20;;;;;;4985367;28;20014;-18
2023/06/28 01:55:33;;;;;;;3.10;1.40;;;19.30;81.30;;;;;;4963341;28;20057;-18
2023/06/28 01:57:59;;;;;;;2.83;1.38;;;19.30;81.40;;;;;;4940522;28;20026;-18
2023/06/28 02:00:25;;;;;;;3.30;1.50;;;19.30;81.60;;;;;;4960764;28;20042;-18
2023/06/28 02:02:52;;;;;;;2.95;1.60;;;19.30;81.80;;;;;;4959162;28;20284;-18
2023/06/28 02:05:18;;;;;;;2.17;1.30;;;19.20;81.90;;;;;;4952841;28;20116;-18
2023/06/28 02:07:44;;;;;;;2.10;1.40;;;19.20;81.90;;;;;;4969844;28;20261;-18
2023/06/28 02:10:10;;;;;;;3.17;1.60;;;19.20;82.00;;;;;;4976566;28;20085;-18
2023/06/28 02:12:36;;;;;;;2.05;1.60;;;19.30;82.20;;;;;;4974140;28;20042;-18
2023/06/28 02:15:02;;;;;;;2.40;1.40;;;19.20;82.20;;;;;;4948832;28;20037;-18
2023/06/28 02:17:30;;;;;;;2.78;1.50;;;19.20;82.30;;;;;;4958286;28;20124;-18
2023/06/28 02:19:56;;;;;;;3.08;1.40;;;19.20;82.40;;;;;;4960507;28;20042;-18
2023/06/28 02:22:22;;;;;;;3.20;1.50;;;19.30;83.20;;;;;;4968068;28;20038;-18
2023/06/28 02:24:48;;;;;;;1.80;1.20;;;19.20;82.60;;;;;;4972694;28;20417;-18
2023/06/28 02:27:15;;;;;;;2.08;1.20;;;19.20;82.60;;;;;;4973586;28;20030;-18
2023/06/28 02:29:40;;;;;;;2.78;1.40;;;19.30;82.80;;;;;;4935645;28;20031;-18
2023/06/28 02:32:06;;;;;;;3.07;1.50;;;19.20;82.90;;;;;;4961457;28;20045;-18
2023/06/28 02:34:33;;;;;;;2.97;1.40;;;19.20;83.00;;;;;;4945903;28;21177;-18
2023/06/28 02:36:59;;;;;;;2.13;1.33;;;19.20;83.10;;;;;;4970602;28;20058;-18
2023/06/28 02:39:25;;;;;;;2.33;1.30;;;19.20;83.20;;;;;;4968418;28;20050;-18
2023/06/28 02:41:50;;;;;;;1.83;1.40;;;19.20;83.40;;;;;;4972354;28;20014;-18
2023/06/28 02:44:16;;;;;;;2.70;1.58;;;19.20;83.40;;;;;;4940447;28;20042;-18
2023/06/28 02:46:42;;;;;;;2.50;1.27;;;19.20;83.60;;;;;;4967201;28;20116;-18
2023/06/28 02:49:08;;;;;;;2.90;1.35;;;19.20;83.70;;;;;;4961546;28;20026;-18
2023/06/28 02:51:34;;;;;;;2.95;1.30;;;19.20;83.90;;;;;;4956216;28;20303;-19
2023/06/28 02:54:00;;;;;;;1.93;1.30;;;19.10;83.90;;;;;;4986103;28;20659;-18
2023/06/28 02:56:26;;;;;;;2.92;1.45;;;19.20;83.90;;;;;;4967878;28;20042;-18
2023/06/28 02:58:52;;;;;;;3.17;1.40;;;19.20;84.00;;;;;;4947741;28;20109;-18
2023/06/28 03:01:21;;;;;;;3.33;1.43;;;19.20;84.10;;;;;;4985380;28;20053;-18
2023/06/28 03:03:47;;;;;;;4.15;1.13;;;19.20;84.20;;;;;;4959260;28;20034;-17
2023/06/28 03:06:16;;;;;;;2.50;1.40;;;19.20;84.30;;;;;;4959437;28;20041;-18
2023/06/28 03:08:42;;;;;;;2.03;1.38;;;19.10;84.30;;;;;;4971535;28;20027;-18
2023/06/28 03:11:08;;;;;;;3.27;1.30;;;19.10;84.40;;;;;;4944187;28;20053;-18
2023/06/28 03:13:33;;;;;;;1.48;1.23;;;19.10;84.50;;;;;;4943365;28;20650;-18
2023/06/28 03:16:00;;;;;;;2.45;1.30;;;19.10;84.60;;;;;;4974260;28;20035;-18
2023/06/28 03:18:26;;;;;;;2.20;1.20;;;19.10;84.70;;;;;;4966082;28;20026;-18
2023/06/28 03:20:52;;;;;;;3.30;1.40;;;19.10;84.80;;;;;;4952396;28;20050;-18
2023/06/28 03:23:18;;;;;;;1.92;1.33;;;19.10;84.90;;;;;;4967798;28;20563;-19
2023/06/28 03:25:43;;;;;;;2.73;1.40;;;19.10;85.00;;;;;;4972846;28;20535;-18
2023/06/28 03:28:10;;;;;;;1.83;1.30;;;19.00;85.20;;;;;;4958443;28;20030;-19
2023/06/28 03:30:35;;;;;;;3.30;1.20;;;19.00;85.30;;;;;;4948917;28;20033;-18
2023/06/28 03:33:01;;;;;;;1.73;1.20;;;19.10;85.30;;;;;;4968030;28;20497;-18
2023/06/28 03:35:27;;;;;;;2.17;1.50;;;19.10;85.40;;;;;;4949168;28;20084;-19
2023/06/28 03:37:54;;;;;;;3.07;1.30;;;19.00;85.40;;;;;;4967397;28;20037;-18
2023/06/28 03:40:21;;;;;;;3.08;1.38;;;19.00;85.50;;;;;;4967862;28;20388;-19
2023/06/28 03:42:48;;;;;;;2.90;1.27;;;19.00;85.60;;;;;;4971995;28;20132;-18
2023/06/28 03:45:14;;;;;;;2.65;1.50;;;19.00;85.60;;;;;;4944071;28;20504;-19
2023/06/28 03:47:40;;;;;;;2.43;1.40;;;19.00;85.90;;;;;;4969192;28;20094;-18
2023/06/28 03:50:06;;;;;;;4.40;1.15;;;19.00;85.90;;;;;;4981815;28;20039;-19
2023/06/28 03:52:32;;;;;;;2.85;1.45;;;19.00;86.10;;;;;;4959492;28;20024;-18
2023/06/28 03:54:58;;;;;;;3.08;1.30;;;19.00;86.10;;;;;;4973562;28;20042;-18
2023/06/28 03:57:23;;;;;;;2.53;1.30;;;19.00;86.10;;;;;;4968160;28;20157;-19
2023/06/28 03:59:49;;;;;;;3.40;1.23;;;19.00;86.10;;;;;;4937428;28;20065;-18
2023/06/28 04:02:15;;;;;;;2.87;1.40;;;19.00;86.30;;;;;;4965497;28;20369;-19
2023/06/28 04:04:41;;;;;;;2.35;1.20;;;19.00;86.40;;;;;;4967151;28;20065;-18
2023/06/28 04:07:07;;;;;;;3.23;1.33;;;19.00;86.40;;;;;;4944491;28;20231;-18
2023/06/28 04:09:33;;;;;;;2.20;1.33;;;19.00;86.60;;;;;;4965299;28;20149;-18
2023/06/28 04:11:59;;;;;;;3.08;1.23;;;19.00;86.80;;;;;;4968016;28;20397;-18
2023/06/28 04:14:25;;;;;;;2.87;1.40;;;19.00;86.90;;;;;;4965971;28;20022;-18
2023/06/28 04:16:52;;;;;;;2.35;1.33;;;19.00;87.10;;;;;;4944409;28;20033;-18
2023/06/28 04:19:18;;;;;;;2.83;1.30;;;19.00;87.60;;;;;;4965961;28;20336;-18
2023/06/28 04:21:44;;;;;;;3.00;1.30;;;19.00;87.20;;;;;;4974061;28;20170;-18
2023/06/28 04:24:09;;;;;;;1.80;1.20;;;19.00;87.20;;;;;;4959687;28;20034;-18
2023/06/28 04:26:35;;;;;;;3.72;1.40;;;19.00;87.40;;;;;;4969892;28;20306;-18
2023/06/28 04:29:01;;;;;;;1.65;1.30;;;19.00;87.50;;;;;;4967051;28;20031;-18
2023/06/28 04:31:27;;;;;;;3.83;1.30;;;19.00;87.60;;;;;;4936950;28;20022;-18
2023/06/28 04:33:57;;;;;;;2.45;1.20;;;19.00;87.80;;;;;;4968188;28;20255;-18
2023/06/28 04:36:25;;;;;;;1.98;1.38;;;19.00;87.90;;;;;;4971504;28;20570;-18
2023/06/28 04:38:55;;;;;;;1.95;1.40;;;19.00;88.10;;;;;;4961910;28;20175;-18
2023/06/28 04:41:25;;;;;;;2.03;1.30;;;19.00;88.20;;;;;;4968687;28;20596;-18
2023/06/28 04:43:56;;;;;;;3.83;1.45;;;19.00;88.20;;;;;;4979933;28;20160;-18
2023/06/28 04:46:29;;;;;;;4.00;1.40;;;19.00;88.20;;;;;;4943759;28;20042;-18
2023/06/28 04:48:56;;;;;;;2.45;1.30;;;19.00;88.30;;;;;;4968048;28;20087;-18
2023/06/28 04:51:22;;;;;;;2.90;1.35;;;19.10;88.40;;;;;;4968315;28;20030;-18
2023/06/28 04:53:49;;;;;;;3.67;1.50;;;19.10;88.50;;;;;;4961268;28;20505;-18
2023/06/28 04:56:15;;;;;;;2.63;1.33;;;19.10;88.50;;;;;;4969715;28;20030;-18
2023/06/28 04:58:42;;;;;;;2.17;1.48;;;19.10;88.60;;;;;;4964900;28;20031;-19
2023/06/28 05:01:10;;;;;;;2.55;1.30;;;19.10;88.70;;;;;;4954778;28;20045;-19
2023/06/28 05:03:38;;;;;;;2.45;1.35;;;19.20;88.70;;;;;;4920504;28;20027;-18
2023/06/28 05:06:08;;;;;;;2.63;1.10;;;19.20;88.80;;;;;;4950673;28;20034;-18
2023/06/28 05:08:35;;;;;;;3.67;1.50;;;19.20;88.70;;;;;;4964957;28;20105;-18
2023/06/28 05:11:03;;;;;;;1.85;1.20;;;19.20;88.80;;;;;;4955111;28;20031;-18
2023/06/28 05:13:29;;;;;;;2.50;1.20;;;19.20;88.60;;;;;;4964082;28;20508;-18
2023/06/28 05:15:55;;;;;;;3.03;1.30;;;19.30;88.80;;;;;;4976136;28;20205;-18
2023/06/28 05:18:21;;;;;;;2.35;1.48;;;19.30;88.90;;;;;;4932856;28;20035;-18
2023/06/28 05:20:47;;;;;;;2.55;1.40;;;19.30;89.00;;;;;;4968131;28;20109;-18
2023/06/28 05:23:15;;;;;;;1.87;1.20;;;19.30;89.00;;;;;;4959542;28;20113;-18
2023/06/28 05:25:42;;;;;;;3.17;1.23;;;19.30;89.10;;;;;;4964417;28;20181;-18
2023/06/28 05:28:10;;;;;;;2.20;1.35;;;19.40;89.10;;;;;;4974068;28;20105;-18
2023/06/28 05:30:36;;;;;;;2.05;1.20;;;19.40;89.00;;;;;;4969780;28;20078;-19
2023/06/28 05:33:04;;;;;;;3.93;1.40;;;19.40;89.10;;;;;;4942999;28;20473;-18
2023/06/28 05:35:31;;;;;;;2.45;1.30;;;19.40;89.10;;;;;;4971582;28;20126;-19
2023/06/28 05:37:57;;;;;;;3.72;1.30;;;19.50;89.10;;;;;;4955060;28;20034;-18
2023/06/28 05:40:22;;;;;;;2.53;1.27;;;19.50;89.30;;;;;;4969915;28;20041;-18
2023/06/28 05:42:48;;;;;;;2.72;1.40;;;19.50;89.30;;;;;;4958397;28;20316;-18
2023/06/28 05:45:14;;;;;;;2.63;1.27;;;19.50;89.40;;;;;;4975542;28;20109;-18
2023/06/28 05:47:39;;;;;;;2.45;1.30;;;19.50;89.50;;;;;;4967050;28;20105;-18
2023/06/28 05:50:06;;;;;;;2.53;1.30;;;19.60;89.60;;;;;;4946000;28;20034;-19
2023/06/28 05:52:31;;;;;;;3.80;1.40;;;19.60;89.80;;;;;;4971009;28;20058;-18
2023/06/28 05:54:57;;;;;;;4.00;1.40;;;19.60;89.80;;;;;;4952974;28;20401;-18
2023/06/28 05:57:23;;;;;;;3.43;1.40;;;19.60;89.80;;;;;;4957527;28;20038;-18
2023/06/28 05:59:49;;;;;;;1.60;1.20;;;19.70;90.00;;;;;;4970109;28;20172;-18
2023/06/28 06:02:14;;;;;;;3.43;1.33;;;19.70;90.00;;;;;;4960631;28;20077;-17
2023/06/28 06:04:40;;;;;;;2.97;1.20;;;19.70;90.00;;;;;;4943330;28;20231;-18
2023/06/28 06:07:06;;;;;;;2.63;1.30;;;19.70;90.00;;;;;;4970015;28;20042;-18
2023/06/28 06:09:32;;;;;;;2.42;1.30;;;19.80;90.50;;;;;;4953702;28;20480;-19
2023/06/28 06:11:58;;;;;;;3.30;1.50;;;19.80;90.20;;;;;;4981598;28;20449;-19
2023/06/28 06:14:23;;;;;;;2.93;1.40;;;19.90;90.30;;;;;;4948310;28;20050;-18
2023/06/28 06:16:49;;;;;;;3.22;1.45;;;19.90;90.40;;;;;;4972377;28;20615;-19
2023/06/28 06:19:15;;;;;;;2.67;1.30;;;20.00;90.40;;;;;;4962302;28;20227;-18
2023/06/28 06:21:40;;;;;;;2.25;1.25;;;20.00;90.40;;;;;;4936714;28;20484;-18
2023/06/28 06:24:07;;;;;;;2.97;1.37;;;20.10;90.50;;;;;;4959161;28;20551;-18
2023/06/28 06:26:36;;;;;;;3.20;1.30;;;20.10;90.50;;;;;;4947940;28;20400;-18
2023/06/28 06:29:02;;;;;;;2.60;1.40;;;20.20;90.50;;;;;;4960014;28;20031;-22
2023/06/28 06:31:29;;;;;;;3.88;1.60;;;20.30;90.60;;;;;;4969391;28;20575;-19
2023/06/28 06:34:01;;;;;;;3.80;1.40;;;20.40;90.60;;;;;;4988810;28;20606;-19
2023/06/28 06:36:27;;;;;;;2.67;1.50;;;20.40;90.60;;;;;;4938766;28;20058;-19
2023/06/28 06:38:54;;;;;;;2.97;1.30;;;20.40;90.60;;;;;;4962349;28;20902;-18
2023/06/28 06:41:23;;;;;;;3.35;1.40;;;20.50;90.60;;;;;;4970520;28;20030;-19
2023/06/28 06:43:49;;;;;;;2.78;1.40;;;20.60;90.50;;;;;;4925376;28;20141;-18
2023/06/28 06:46:18;;;;;;;3.53;1.40;;;20.60;90.40;;;;;;4970844;28;20031;-18
2023/06/28 06:48:44;;;;;;;2.75;1.30;;;20.60;90.40;;;;;;4968035;28;20071;-18
2023/06/28 06:51:10;;;;;;;3.40;1.40;;;20.70;90.50;;;;;;4939899;28;20049;-18
2023/06/28 06:53:36;;;;;;;1.70;1.40;;;20.70;90.80;;;;;;4960907;28;20030;-19
2023/06/28 06:56:02;;;;;;;1.97;1.30;;;20.80;90.50;;;;;;4972855;28;20058;-19
2023/06/28 06:58:28;;;;;;;3.15;1.40;;;20.80;90.50;;;;;;4944466;28;20093;-19
2023/06/28 07:00:54;;;;;;;2.93;1.50;;;20.80;90.60;;;;;;4979810;28;20054;-18
2023/06/28 07:03:19;;;;;;;3.17;1.37;;;20.90;90.90;;;;;;4969861;28;20282;-18
2023/06/28 07:05:45;;;;;;;2.10;1.30;;;20.90;90.60;;;;;;4939213;28;20319;-18
2023/06/28 07:08:11;;;;;;;2.28;1.40;;;20.90;90.60;;;;;;4956237;28;20096;-18
2023/06/28 07:10:37;;;;;;;2.53;1.50;;;20.90;90.60;;;;;;4961255;28;20229;-18
2023/06/28 07:13:03;;;;;;;3.60;1.40;;;21.00;90.60;;;;;;4949741;28;20286;-19
2023/06/28 07:15:28;;;;;;;4.78;1.60;;;21.00;90.60;;;;;;4971704;28;20068;-18
2023/06/28 07:17:54;;;;;;;4.55;1.33;;;21.10;90.70;;;;;;4971046;28;20113;-18
2023/06/28 07:20:20;;;;;;;3.03;1.70;;;21.10;90.80;;;;;;4967233;28;20034;-19
2023/06/28 07:22:46;;;;;;;3.05;1.42;;;21.20;90.80;;;;;;4943039;28;20093;-18
2023/06/28 07:25:12;;;;;;;3.00;1.50;;;21.30;90.90;;;;;;4966204;28;20405;-18
2023/06/28 07:27:38;;;;;;;6.28;1.50;;;21.30;90.80;;;;;;4961682;28;20057;-18
2023/06/28 07:30:06;;;;;;;4.68;1.50;;;21.40;90.80;;;;;;4942201;28;20023;-18
2023/06/28 07:32:32;;;;;;;5.10;1.40;;;21.40;90.80;;;;;;4967750;28;20078;-20
2023/06/28 07:34:58;;;;;;;3.80;1.50;;;21.50;90.80;;;;;;4970433;28;20162;-19
2023/06/28 07:37:23;;;;;;;2.60;1.40;;;21.50;90.80;;;;;;4940115;28;20241;-19
2023/06/28 07:39:49;;;;;;;3.73;1.60;;;21.60;90.80;;;;;;4953828;28;20019;-18
2023/06/28 07:42:15;;;;;;;3.55;1.70;;;21.60;90.80;;;;;;4959135;28;20038;-18
2023/06/28 07:44:41;;;;;;;3.20;1.60;;;21.70;90.80;;;;;;4952165;28;20149;-18
2023/06/28 07:47:07;;;;;;;3.75;1.60;;;21.70;90.90;;;;;;4973843;28;20049;-19
2023/06/28 07:49:32;;;;;;;4.43;1.42;;;21.80;90.90;;;;;;4967910;28;20060;-18
2023/06/28 07:52:00;;;;;;;3.43;1.40;;;21.90;90.80;;;;;;4969362;28;20026;-18
2023/06/28 07:54:25;;;;;;;3.83;1.67;;;21.90;90.70;;;;;;4940558;28;20221;-18
2023/06/28 07:56:51;;;;;;;3.55;1.70;;;21.90;90.70;;;;;;4963161;28;20034;-18
2023/06/28 07:59:19;;;;;;;3.00;1.40;;;22.00;90.70;;;;;;4956810;28;20471;-19
2023/06/28 08:01:46;;;;;;;3.88;1.70;;;22.00;90.50;;;;;;4958170;28;20050;-18
2023/06/28 08:04:11;;;;;;;3.72;1.67;;;22.10;90.50;;;;;;4982920;28;20523;-19
2023/06/28 08:06:37;;;;;;;4.10;1.60;;;22.10;90.60;;;;;;4983631;28;20120;-18
2023/06/28 08:09:03;;;;;;;3.25;1.60;;;22.10;90.60;;;;;;4941523;28;20027;-18
2023/06/28 08:11:29;;;;;;;3.80;1.77;;;22.20;90.60;;;;;;4964424;28;20057;-18
2023/06/28 08:13:54;;;;;;;4.90;1.80;;;22.20;90.60;;;;;;4959755;28;20026;-18
2023/06/28 08:16:20;;;;;;;4.20;1.80;;;22.30;90.60;;;;;;4943859;28;20543;-19
2023/06/28 08:18:46;;;;;;;4.33;2.00;;;22.30;90.70;;;;;;4985691;28;20037;-18
2023/06/28 08:21:13;;;;;;;4.88;2.13;;;22.50;90.80;;;;;;4970618;28;20027;-19
2023/06/28 08:23:38;;;;;;;5.25;1.90;;;22.50;90.80;;;;;;4943809;28;20038;-19
2023/06/28 08:26:04;;;;;;;3.13;1.67;;;22.60;90.80;;;;;;4968318;28;20027;-19
2023/06/28 08:28:30;;;;;;;3.95;1.67;;;22.70;90.70;;;;;;4955745;28;20194;-18
2023/06/28 08:30:55;;;;;;;5.63;2.03;;;22.90;90.80;;;;;;4948685;28;20041;-18
2023/06/28 08:33:22;;;;;;;4.17;1.80;;;23.00;91.00;;;;;;4954916;28;20026;-19
2023/06/28 08:35:48;;;;;;;4.10;1.70;;;23.10;91.20;;;;;;4969757;28;20492;-19
2023/06/28 08:38:14;;;;;;;4.00;2.20;;;23.30;91.60;;;;;;4965475;28;20045;-19
2023/06/28 08:40:40;;;;;;;3.90;2.10;;;23.50;91.70;;;;;;4936780;28;20429;-18
2023/06/28 08:43:06;;;;;;;4.22;2.17;;;23.70;91.60;;;;;;4966911;28;20030;-19
2023/06/28 08:45:33;;;;;;;4.05;2.20;;;24.00;91.50;;;;;;4943242;28;20256;-19
2023/06/28 08:48:00;;;;;;;3.17;1.80;;;24.20;91.40;;;;;;4956678;28;20073;-19
2023/06/28 08:50:26;;;;;;;4.63;2.03;;;24.40;91.50;;;;;;4975410;28;20073;-19
2023/06/28 08:52:52;;;;;;;4.10;2.17;;;24.70;91.80;;;;;;4966229;28;20446;-18
2023/06/28 08:55:21;;;;;;;6.30;2.40;;;25.00;92.20;;;;;;4930480;28;20035;-19
2023/06/28 08:57:48;;;;;;;6.85;2.30;;;25.30;91.60;;;;;;4968923;28;20035;-19
2023/06/28 09:00:14;;;;;;;4.72;1.92;;;25.70;92.20;;;;;;4947670;28;20038;-19
2023/06/28 09:02:44;;;;;;;3.72;2.13;;;26.00;91.90;;;;;;4961713;28;20370;-19
2023/06/28 09:05:10;;;;;;;4.90;2.20;;;26.40;91.40;;;;;;4972489;28;20035;-19
2023/06/28 09:07:42;;;;;;;3.33;1.95;;;26.70;92.30;;;;;;4972914;28;20026;-19
2023/06/28 09:10:09;;;;;;;4.07;2.08;;;27.20;91.90;;;;;;4969069;28;20022;-19
2023/06/28 09:12:36;;;;;;;4.75;2.08;;;27.60;92.90;;;;;;4950440;28;20203;-19
2023/06/28 09:15:03;;;;;;;4.97;2.50;;;28.00;92.50;;;;;;4958232;28;20088;-18
2023/06/28 09:17:29;;;;;;;4.97;2.40;;;28.40;91.80;;;;;;4949408;28;20229;-18
2023/06/28 09:20:01;;;;;;;3.65;2.10;;;28.80;91.70;;;;;;4959522;28;20048;-18
2023/06/28 09:22:28;;;;;;;4.03;2.20;;;29.20;90.60;;;;;;4955978;28;20031;-19
2023/06/28 09:24:54;;;;;;;3.05;2.28;;;29.50;92.00;;;;;;4957382;28;20085;-19
2023/06/28 09:27:19;;;;;;;4.30;2.30;;;29.90;91.80;;;;;;4944087;28;20752;-19
2023/06/28 09:29:59;;;;;;;4.25;2.45;;;30.30;91.50;;;;;;4967985;28;20043;-19
2023/06/28 09:32:24;;;;;;;4.78;2.97;;;30.70;87.80;;;;;;4956647;28;20045;-19
2023/06/28 09:34:50;;;;;;;5.40;2.87;;;31.10;90.80;;;;;;4955882;28;20014;-20
2023/06/28 09:37:16;;;;;;;3.65;2.50;;;31.40;90.20;;;;;;4959018;28;20770;-19
2023/06/28 09:39:41;;;;;;;4.73;2.43;;;31.70;88.40;;;;;;4962062;28;20034;-19
2023/06/28 09:42:07;;;;;;;4.25;2.65;;;31.80;87.00;;;;;;4967314;28;20059;-19
2023/06/28 09:44:33;;;;;;;3.77;2.70;;;31.90;86.00;;;;;;4951073;28;20156;-19
2023/06/28 09:47:01;;;;;;;3.70;2.50;;;32.00;86.20;;;;;;4960090;28;20816;-19
2023/06/28 09:49:27;;;;;;;6.35;2.90;;;32.00;83.50;;;;;;4937496;28;20155;-19
2023/06/28 09:52:06;;;;;;;3.73;2.20;;;32.00;82.70;;;;;;4965968;28;20505;-19
2023/06/28 09:54:34;;;;;;;4.97;2.90;;;31.90;77.20;;;;;;4954108;28;20467;-19
2023/06/28 09:57:01;;;;;;;3.78;2.45;;;31.90;81.60;;;;;;4967135;28;20034;-19
2023/06/28 09:59:31;;;;;;;3.17;2.70;;;32.00;82.90;;;;;;4933287;28;20026;-19
2023/06/28 10:02:01;;;;;;;5.93;3.37;;;32.00;82.20;;;;;;4964151;28;20046;-19
2023/06/28 10:04:30;;;;;;;5.38;3.10;;;32.00;81.10;;;;;;4949003;28;20084;-19
2023/06/28 10:07:00;;;;;;;5.10;2.92;;;32.00;80.80;;;;;;4956977;28;20493;-19
2023/06/28 10:09:32;;;;;;;3.75;2.65;;;32.00;78.80;;;;;;4958686;28;20030;-19
2023/06/28 10:11:59;;;;;;;4.32;2.75;;;31.90;79.30;;;;;;4940073;28;20146;-19
2023/06/28 10:14:31;;;;;;;3.80;2.50;;;31.90;80.90;;;;;;4943478;28;20034;-19
2023/06/28 10:16:59;;;;;;;5.93;3.13;;;32.00;78.80;;;;;;4962516;28;20053;-20
2023/06/28 10:19:27;;;;;;;4.03;2.55;;;32.10;80.40;;;;;;4969097;28;20031;-19
2023/06/28 10:21:55;;;;;;;4.68;2.88;;;32.20;79.90;;;;;;4952785;28;20034;-19
2023/06/28 10:24:21;;;;;;;4.82;2.85;;;32.20;78.80;;;;;;4957253;28;23432;-19
2023/06/28 10:26:48;;;;;;;3.90;2.70;;;32.20;78.60;;;;;;4976783;28;20092;-19
2023/06/28 10:29:13;;;;;;;5.13;3.17;;;32.20;78.30;;;;;;4939200;28;20039;-19
2023/06/28 10:31:39;;;;;;;4.72;2.80;;;32.10;77.90;;;;;;4974128;28;20053;-19
2023/06/28 10:34:06;;;;;;;4.37;2.60;;;32.10;77.10;;;;;;4942728;28;20517;-18
2023/06/28 10:36:32;;;;;;;4.65;3.15;;;32.10;76.80;;;;;;4971444;28;20100;-19
2023/06/28 10:38:58;;;;;;;4.80;2.70;;;32.10;77.60;;;;;;4983245;28;20037;-19
2023/06/28 10:41:25;;;;;;;5.30;3.10;;;32.10;78.00;;;;;;4970896;28;20034;-19
2023/06/28 10:44:03;;;;;;;5.70;3.15;;;32.20;78.40;;;;;;4939464;28;20852;-19
2023/06/28 10:46:29;;;;;;;4.30;2.60;;;32.30;74.20;;;;;;4969798;28;20515;-19
2023/06/28 10:48:56;;;;;;;4.68;3.05;;;32.50;77.80;;;;;;4947742;28;20030;-19
2023/06/28 10:51:26;;;;;;;4.73;2.93;;;32.50;77.00;;;;;;4955034;28;20023;-19
2023/06/28 10:53:53;;;;;;;4.50;2.85;;;32.50;75.90;;;;;;4960957;28;20525;-19
2023/06/28 10:56:20;;;;;;;5.18;3.00;;;32.50;75.40;;;;;;4967459;28;20026;-19
2023/06/28 10:58:52;;;;;;;4.50;2.80;;;32.50;75.70;;;;;;4955016;28;20176;-19
2023/06/28 11:01:51;;;;;;;5.38;3.10;;;32.50;75.80;;;;;;4957330;28;20122;-19
2023/06/28 11:04:24;;;;;;;4.47;2.90;;;32.50;71.50;;;;;;4966490;28;20606;-19
2023/06/28 11:07:09;;;;;;;4.65;3.22;;;32.50;74.70;;;;;;4953617;28;20333;-19
2023/06/28 11:09:35;;;;;;;5.03;3.40;;;32.60;72.30;;;;;;4962421;28;20122;-19
2023/06/28 11:12:03;;;;;;;4.25;3.05;;;32.70;75.10;;;;;;4970020;28;20307;-19
2023/06/28 11:14:32;;;;;;;10.30;3.22;;;32.70;74.40;;;;;;4964146;28;20029;-19
2023/06/28 11:17:05;;;;;;;5.37;3.10;;;32.60;71.90;;;;;;4948065;28;20077;-19
2023/06/28 11:19:31;;;;;;;4.63;2.80;;;32.60;71.30;;;;;;4963967;28;20037;-19
2023/06/28 11:22:02;;;;;;;4.35;3.03;;;32.50;73.30;;;;;;4951702;28;23339;-19
2023/06/28 11:24:37;;;;;;;6.67;3.60;;;32.50;71.40;;;;;;4969162;28;20070;-19
2023/06/28 11:27:10;;;;;;;5.35;3.25;;;32.60;71.20;;;;;;4968687;28;20237;-19
2023/06/28 11:29:51;;;;;;;5.00;3.13;;;32.50;72.40;;;;;;4960287;28;20023;-19
2023/06/28 11:32:22;;;;;;;4.20;2.88;;;32.50;70.10;;;;;;4940672;28;20574;-20
2023/06/28 11:34:48;;;;;;;5.35;3.15;;;32.50;70.00;;;;;;4962130;28;20350;-19
2023/06/28 11:37:14;;;;;;;5.27;3.53;;;32.40;72.40;;;;;;4967462;28;20085;-19
2023/06/28 11:39:41;;;;;;;5.15;3.53;;;32.40;71.90;;;;;;4942180;28;20492;-19
2023/06/28 11:42:13;;;;;;;4.72;3.03;;;32.40;71.40;;;;;;4966780;28;20031;-19
2023/06/28 11:44:50;;;;;;;5.38;3.30;;;32.30;69.10;;;;;;4957390;28;20133;-19
2023/06/28 11:47:17;;;;;;;5.40;3.20;;;32.20;68.10;;;;;;4940953;28;20030;-19
2023/06/28 11:49:44;;;;;;;4.57;3.20;;;32.10;70.50;;;;;;4964191;28;20030;-19
2023/06/28 11:52:10;;;;;;;5.35;3.47;;;32.00;70.80;;;;;;4955334;28;20034;-19
2023/06/28 11:54:36;;;;;;;5.50;3.60;;;32.00;71.60;;;;;;4947620;28;20037;-19
2023/06/28 11:57:01;;;;;;;6.05;4.00;;;32.10;73.00;;;;;;4933968;28;20276;-19
2023/06/28 11:59:29;;;;;;;6.43;4.07;;;32.20;72.80;;;;;;4963539;28;20233;-19
2023/06/28 12:02:06;;;;;;;6.47;3.65;;;32.40;72.70;;;;;;4929372;28;20234;-19
2023/06/28 12:04:34;;;;;;;5.38;3.60;;;32.60;70.30;;;;;;4965845;28;20026;-19
2023/06/28 12:07:01;;;;;;;5.97;3.73;;;32.70;72.80;;;;;;4963366;28;20616;-19
2023/06/28 12:09:31;;;;;;;5.22;3.97;;;32.80;71.40;;;;;;4964875;28;20074;-19
2023/06/28 12:11:59;;;;;;;5.40;4.20;;;32.90;69.10;;;;;;4957634;28;20026;-19
2023/06/28 12:14:29;;;;;;;7.32;3.80;;;33.00;71.10;;;;;;4956577;28;20484;-19
2023/06/28 12:16:56;;;;;;;5.28;3.85;;;33.00;70.10;;;;;;4928220;28;27088;-19
2023/06/28 12:19:33;;;;;;;6.17;4.27;;;33.10;70.00;;;;;;4954613;28;20030;-19
2023/06/28 12:22:06;;;;;;;6.28;3.83;;;33.00;68.20;;;;;;4977094;28;20041;-20
2023/06/28 12:24:37;;;;;;;5.40;3.78;;;33.10;67.30;;;;;;4965703;28;20324;-19
2023/06/28 12:27:05;;;;;;;6.25;4.10;;;33.10;69.70;;;;;;4948820;28;20188;-19
2023/06/28 12:29:33;;;;;;;7.43;4.30;;;33.20;69.50;;;;;;4952721;28;20515;-19
2023/06/28 12:32:06;;;;;;;5.77;3.83;;;33.40;70.30;;;;;;4966077;28;20026;-19
2023/06/28 12:34:34;;;;;;;6.53;3.97;;;33.50;65.40;;;;;;4939813;28;20037;-19
2023/06/28 12:37:12;;;;;;;7.40;4.38;;;33.60;69.60;;;;;;4965078;28;20222;-19
2023/06/28 12:39:39;;;;;;;5.50;3.78;;;33.70;67.40;;;;;;4964408;28;20031;-19
2023/06/28 12:42:10;;;;;;;4.78;3.35;;;33.70;69.10;;;;;;4945157;28;20486;-19
2023/06/28 12:44:58;;;;;;;5.10;3.57;;;33.80;68.20;;;;;;4950207;28;20481;-19
2023/06/28 12:47:26;;;;;;;4.45;3.03;;;33.80;65.00;;;;;;4967803;28;20038;-19